sensor_id;sensor_type;location;lat;lon;timestamp;P1;durP1;ratioP1;P2;durP2;ratioP2
26516;SDS011;14190;51.342;6.338;2022-12-07T00:01:18;36.58;;;25.43;;
26516;SDS011;14190;51.342;6.338;2022-12-07T00:03:46;37.25;;;24.55;;
26516;SDS011;14190;51.342;6.338;2022-12-07T00:06:14;46.98;;;25.35;;
26516;SDS011;14190;51.342;6.338;2022-12-07T00:08:42;36.98;;;24.12;;
26516;SDS011;14190;51.342;6.338;2022-12-07T00:11:15;39.15;;;25.52;;
26516;SDS011;14190;51.342;6.338;2022-12-07T00:13:39;39.73;;;24.43;;
26516;SDS011;14190;51.342;6.338;2022-12-07T00:16:08;42.98;;;24.27;;
26516;SDS011;14190;51.342;6.338;2022-12-07T00:18:36;41.25;;;24.45;;
26516;SDS011;14190;51.342;6.338;2022-12-07T00:21:04;41.50;;;25.43;;
26516;SDS011;14190;51.342;6.338;2022-12-07T00:23:32;36.90;;;25.25;;
26516;SDS011;14190;51.342;6.338;2022-12-07T00:26:12;43.02;;;25.17;;
26516;SDS011;14190;51.342;6.338;2022-12-07T00:28:35;43.45;;;25.92;;
26516;SDS011;14190;51.342;6.338;2022-12-07T00:31:08;39.35;;;25.92;;
26516;SDS011;14190;51.342;6.338;2022-12-07T00:33:32;38.83;;;24.18;;
26516;SDS011;14190;51.342;6.338;2022-12-07T00:36:00;46.70;;;26.02;;
26516;SDS011;14190;51.342;6.338;2022-12-07T00:38:29;44.95;;;27.17;;
26516;SDS011;14190;51.342;6.338;2022-12-07T00:40:57;36.90;;;26.77;;
26516;SDS011;14190;51.342;6.338;2022-12-07T00:43:25;46.37;;;25.52;;
26516;SDS011;14190;51.342;6.338;2022-12-07T00:45:52;42.67;;;28.00;;
26516;SDS011;14190;51.342;6.338;2022-12-07T00:48:20;44.13;;;26.35;;
26516;SDS011;14190;51.342;6.338;2022-12-07T00:50:47;42.85;;;27.22;;
26516;SDS011;14190;51.342;6.338;2022-12-07T00:53:15;43.13;;;27.37;;
26516;SDS011;14190;51.342;6.338;2022-12-07T00:55:42;39.92;;;26.10;;
26516;SDS011;14190;51.342;6.338;2022-12-07T00:58:10;41.37;;;26.20;;
26516;SDS011;14190;51.342;6.338;2022-12-07T01:00:39;39.33;;;25.85;;
26516;SDS011;14190;51.342;6.338;2022-12-07T01:03:07;39.05;;;26.12;;
26516;SDS011;14190;51.342;6.338;2022-12-07T01:05:35;40.92;;;25.90;;
26516;SDS011;14190;51.342;6.338;2022-12-07T01:08:03;65.87;;;25.88;;
26516;SDS011;14190;51.342;6.338;2022-12-07T01:10:30;43.08;;;26.52;;
26516;SDS011;14190;51.342;6.338;2022-12-07T01:12:58;51.50;;;26.90;;
26516;SDS011;14190;51.342;6.338;2022-12-07T01:15:25;52.35;;;28.92;;
26516;SDS011;14190;51.342;6.338;2022-12-07T01:17:53;41.60;;;27.25;;
26516;SDS011;14190;51.342;6.338;2022-12-07T01:20:21;55.63;;;30.00;;
26516;SDS011;14190;51.342;6.338;2022-12-07T01:22:48;47.50;;;28.98;;
26516;SDS011;14190;51.342;6.338;2022-12-07T01:25:16;52.35;;;30.80;;
26516;SDS011;14190;51.342;6.338;2022-12-07T01:27:43;46.63;;;31.25;;
26516;SDS011;14190;51.342;6.338;2022-12-07T01:30:11;43.95;;;29.92;;
26516;SDS011;14190;51.342;6.338;2022-12-07T01:32:38;50.85;;;30.20;;
26516;SDS011;14190;51.342;6.338;2022-12-07T01:35:06;47.45;;;29.85;;
26516;SDS011;14190;51.342;6.338;2022-12-07T01:37:34;54.55;;;31.12;;
26516;SDS011;14190;51.342;6.338;2022-12-07T01:40:02;52.78;;;31.30;;
26516;SDS011;14190;51.342;6.338;2022-12-07T01:42:30;49.42;;;31.05;;
26516;SDS011;14190;51.342;6.338;2022-12-07T01:47:51;50.12;;;32.73;;
26516;SDS011;14190;51.342;6.338;2022-12-07T01:50:15;54.42;;;32.38;;
26516;SDS011;14190;51.342;6.338;2022-12-07T01:52:42;55.88;;;33.70;;
26516;SDS011;14190;51.342;6.338;2022-12-07T01:55:12;55.50;;;33.18;;
26516;SDS011;14190;51.342;6.338;2022-12-07T01:57:40;52.80;;;34.30;;
26516;SDS011;14190;51.342;6.338;2022-12-07T02:00:08;50.08;;;32.67;;
26516;SDS011;14190;51.342;6.338;2022-12-07T02:05:25;52.85;;;33.60;;
26516;SDS011;14190;51.342;6.338;2022-12-07T02:07:54;53.38;;;34.23;;
26516;SDS011;14190;51.342;6.338;2022-12-07T02:10:27;52.05;;;31.42;;
26516;SDS011;14190;51.342;6.338;2022-12-07T02:12:55;58.28;;;34.10;;
26516;SDS011;14190;51.342;6.338;2022-12-07T02:15:25;57.33;;;32.53;;
26516;SDS011;14190;51.342;6.338;2022-12-07T02:20:28;47.45;;;32.35;;
26516;SDS011;14190;51.342;6.338;2022-12-07T02:23:00;58.00;;;34.33;;
26516;SDS011;14190;51.342;6.338;2022-12-07T02:28:05;54.20;;;31.15;;
26516;SDS011;14190;51.342;6.338;2022-12-07T02:30:31;55.17;;;33.23;;
26516;SDS011;14190;51.342;6.338;2022-12-07T02:33:03;58.08;;;33.20;;
26516;SDS011;14190;51.342;6.338;2022-12-07T02:35:33;52.38;;;31.35;;
26516;SDS011;14190;51.342;6.338;2022-12-07T02:38:02;55.03;;;31.85;;
26516;SDS011;14190;51.342;6.338;2022-12-07T02:40:34;54.88;;;32.80;;
26516;SDS011;14190;51.342;6.338;2022-12-07T02:43:16;58.38;;;32.83;;
26516;SDS011;14190;51.342;6.338;2022-12-07T02:45:43;56.15;;;32.00;;
26516;SDS011;14190;51.342;6.338;2022-12-07T02:48:12;54.63;;;33.85;;
26516;SDS011;14190;51.342;6.338;2022-12-07T02:50:44;53.50;;;32.40;;
26516;SDS011;14190;51.342;6.338;2022-12-07T02:53:32;55.95;;;32.28;;
26516;SDS011;14190;51.342;6.338;2022-12-07T02:55:39;50.75;;;32.98;;
26516;SDS011;14190;51.342;6.338;2022-12-07T02:58:28;53.02;;;33.00;;
26516;SDS011;14190;51.342;6.338;2022-12-07T03:01:00;48.73;;;32.63;;
26516;SDS011;14190;51.342;6.338;2022-12-07T03:03:21;47.85;;;30.85;;
26516;SDS011;14190;51.342;6.338;2022-12-07T03:05:52;52.08;;;31.55;;
26516;SDS011;14190;51.342;6.338;2022-12-07T03:13:21;51.33;;;31.40;;
26516;SDS011;14190;51.342;6.338;2022-12-07T03:16:02;50.98;;;30.20;;
26516;SDS011;14190;51.342;6.338;2022-12-07T03:18:30;62.45;;;30.75;;
26516;SDS011;14190;51.342;6.338;2022-12-07T03:20:59;48.15;;;31.00;;
26516;SDS011;14190;51.342;6.338;2022-12-07T03:23:27;46.58;;;28.77;;
26516;SDS011;14190;51.342;6.338;2022-12-07T03:25:56;46.48;;;29.27;;
26516;SDS011;14190;51.342;6.338;2022-12-07T03:28:25;46.50;;;27.70;;
26516;SDS011;14190;51.342;6.338;2022-12-07T03:31:02;48.42;;;29.02;;
26516;SDS011;14190;51.342;6.338;2022-12-07T03:33:31;46.13;;;28.40;;
26516;SDS011;14190;51.342;6.338;2022-12-07T03:36:00;45.28;;;28.05;;
26516;SDS011;14190;51.342;6.338;2022-12-07T03:38:31;47.78;;;26.05;;
26516;SDS011;14190;51.342;6.338;2022-12-07T03:41:00;42.58;;;25.55;;
26516;SDS011;14190;51.342;6.338;2022-12-07T03:43:30;39.73;;;26.62;;
26516;SDS011;14190;51.342;6.338;2022-12-07T03:46:19;42.53;;;26.33;;
26516;SDS011;14190;51.342;6.338;2022-12-07T03:48:49;48.63;;;27.67;;
26516;SDS011;14190;51.342;6.338;2022-12-07T03:53:49;45.20;;;27.48;;
26516;SDS011;14190;51.342;6.338;2022-12-07T03:56:16;42.90;;;25.40;;
26516;SDS011;14190;51.342;6.338;2022-12-07T03:58:43;43.17;;;26.87;;
26516;SDS011;14190;51.342;6.338;2022-12-07T04:01:10;43.68;;;26.02;;
26516;SDS011;14190;51.342;6.338;2022-12-07T04:03:38;34.13;;;22.90;;
26516;SDS011;14190;51.342;6.338;2022-12-07T04:06:05;37.65;;;22.73;;
26516;SDS011;14190;51.342;6.338;2022-12-07T04:08:33;40.70;;;23.42;;
26516;SDS011;14190;51.342;6.338;2022-12-07T04:11:00;38.73;;;24.50;;
26516;SDS011;14190;51.342;6.338;2022-12-07T04:13:28;39.40;;;21.97;;
26516;SDS011;14190;51.342;6.338;2022-12-07T04:15:55;37.48;;;23.67;;
26516;SDS011;14190;51.342;6.338;2022-12-07T04:18:23;32.88;;;21.48;;
26516;SDS011;14190;51.342;6.338;2022-12-07T04:20:50;29.92;;;19.42;;
26516;SDS011;14190;51.342;6.338;2022-12-07T04:23:17;32.50;;;19.10;;
26516;SDS011;14190;51.342;6.338;2022-12-07T04:25:47;35.52;;;21.62;;
26516;SDS011;14190;51.342;6.338;2022-12-07T04:28:13;35.80;;;19.92;;
26516;SDS011;14190;51.342;6.338;2022-12-07T04:30:41;33.92;;;19.25;;
26516;SDS011;14190;51.342;6.338;2022-12-07T04:33:08;25.97;;;18.60;;
26516;SDS011;14190;51.342;6.338;2022-12-07T04:35:36;27.70;;;16.60;;
26516;SDS011;14190;51.342;6.338;2022-12-07T04:38:03;28.25;;;17.77;;
26516;SDS011;14190;51.342;6.338;2022-12-07T04:40:30;27.75;;;17.77;;
26516;SDS011;14190;51.342;6.338;2022-12-07T04:42:58;32.90;;;18.57;;
26516;SDS011;14190;51.342;6.338;2022-12-07T04:45:25;47.95;;;17.60;;
26516;SDS011;14190;51.342;6.338;2022-12-07T04:47:52;32.45;;;17.40;;
26516;SDS011;14190;51.342;6.338;2022-12-07T04:50:20;28.67;;;18.55;;
26516;SDS011;14190;51.342;6.338;2022-12-07T04:52:47;32.10;;;17.25;;
26516;SDS011;14190;51.342;6.338;2022-12-07T04:55:14;35.35;;;19.15;;
26516;SDS011;14190;51.342;6.338;2022-12-07T04:57:42;33.53;;;19.87;;
26516;SDS011;14190;51.342;6.338;2022-12-07T05:00:09;29.40;;;18.23;;
26516;SDS011;14190;51.342;6.338;2022-12-07T05:02:37;35.05;;;19.05;;
26516;SDS011;14190;51.342;6.338;2022-12-07T05:05:04;42.13;;;20.82;;
26516;SDS011;14190;51.342;6.338;2022-12-07T05:07:32;41.13;;;20.17;;
26516;SDS011;14190;51.342;6.338;2022-12-07T05:09:59;33.00;;;18.98;;
26516;SDS011;14190;51.342;6.338;2022-12-07T05:12:26;30.05;;;20.65;;
26516;SDS011;14190;51.342;6.338;2022-12-07T05:14:54;33.98;;;20.10;;
26516;SDS011;14190;51.342;6.338;2022-12-07T05:17:21;33.20;;;20.10;;
26516;SDS011;14190;51.342;6.338;2022-12-07T05:19:48;36.65;;;20.37;;
26516;SDS011;14190;51.342;6.338;2022-12-07T05:22:16;34.67;;;18.98;;
26516;SDS011;14190;51.342;6.338;2022-12-07T05:24:43;32.30;;;20.40;;
26516;SDS011;14190;51.342;6.338;2022-12-07T05:27:10;30.90;;;18.52;;
26516;SDS011;14190;51.342;6.338;2022-12-07T05:29:38;31.10;;;19.50;;
26516;SDS011;14190;51.342;6.338;2022-12-07T05:32:05;29.15;;;18.95;;
26516;SDS011;14190;51.342;6.338;2022-12-07T05:34:32;30.17;;;19.45;;
26516;SDS011;14190;51.342;6.338;2022-12-07T05:37:00;33.35;;;19.52;;
26516;SDS011;14190;51.342;6.338;2022-12-07T05:39:27;33.25;;;19.50;;
26516;SDS011;14190;51.342;6.338;2022-12-07T05:41:54;25.35;;;18.52;;
26516;SDS011;14190;51.342;6.338;2022-12-07T05:44:41;32.03;;;20.00;;
26516;SDS011;14190;51.342;6.338;2022-12-07T05:47:09;37.75;;;21.23;;
26516;SDS011;14190;51.342;6.338;2022-12-07T05:49:37;31.20;;;21.10;;
26516;SDS011;14190;51.342;6.338;2022-12-07T05:52:04;33.18;;;19.85;;
26516;SDS011;14190;51.342;6.338;2022-12-07T05:54:32;29.25;;;21.37;;
26516;SDS011;14190;51.342;6.338;2022-12-07T05:56:59;32.13;;;20.95;;
26516;SDS011;14190;51.342;6.338;2022-12-07T05:59:27;34.18;;;20.77;;
26516;SDS011;14190;51.342;6.338;2022-12-07T06:04:29;28.98;;;18.25;;
26516;SDS011;14190;51.342;6.338;2022-12-07T06:06:56;32.98;;;19.40;;
26516;SDS011;14190;51.342;6.338;2022-12-07T06:09:24;31.50;;;19.57;;
26516;SDS011;14190;51.342;6.338;2022-12-07T06:11:52;33.67;;;19.87;;
26516;SDS011;14190;51.342;6.338;2022-12-07T06:14:37;30.70;;;18.45;;
26516;SDS011;14190;51.342;6.338;2022-12-07T06:17:05;31.52;;;18.75;;
26516;SDS011;14190;51.342;6.338;2022-12-07T06:19:32;28.12;;;16.52;;
26516;SDS011;14190;51.342;6.338;2022-12-07T06:22:00;30.02;;;17.05;;
26516;SDS011;14190;51.342;6.338;2022-12-07T06:24:27;26.00;;;15.35;;
26516;SDS011;14190;51.342;6.338;2022-12-07T06:26:55;32.28;;;17.15;;
26516;SDS011;14190;51.342;6.338;2022-12-07T06:29:22;25.32;;;15.75;;
26516;SDS011;14190;51.342;6.338;2022-12-07T06:31:50;30.25;;;16.17;;
26516;SDS011;14190;51.342;6.338;2022-12-07T06:34:19;26.12;;;15.18;;
26516;SDS011;14190;51.342;6.338;2022-12-07T06:36:46;26.07;;;14.93;;
26516;SDS011;14190;51.342;6.338;2022-12-07T06:39:19;31.52;;;14.85;;
26516;SDS011;14190;51.342;6.338;2022-12-07T06:41:46;30.35;;;16.40;;
26516;SDS011;14190;51.342;6.338;2022-12-07T06:44:14;26.85;;;15.93;;
26516;SDS011;14190;51.342;6.338;2022-12-07T06:46:41;27.65;;;15.98;;
26516;SDS011;14190;51.342;6.338;2022-12-07T06:49:08;21.95;;;14.83;;
26516;SDS011;14190;51.342;6.338;2022-12-07T06:51:36;23.15;;;14.87;;
26516;SDS011;14190;51.342;6.338;2022-12-07T06:54:05;27.32;;;14.07;;
26516;SDS011;14190;51.342;6.338;2022-12-07T06:56:32;28.57;;;15.05;;
26516;SDS011;14190;51.342;6.338;2022-12-07T06:58:59;25.12;;;14.60;;
26516;SDS011;14190;51.342;6.338;2022-12-07T07:01:27;27.05;;;15.53;;
26516;SDS011;14190;51.342;6.338;2022-12-07T07:03:54;24.32;;;14.35;;
26516;SDS011;14190;51.342;6.338;2022-12-07T07:06:22;26.17;;;14.60;;
26516;SDS011;14190;51.342;6.338;2022-12-07T07:08:49;26.57;;;15.05;;
26516;SDS011;14190;51.342;6.338;2022-12-07T07:11:17;28.52;;;16.57;;
26516;SDS011;14190;51.342;6.338;2022-12-07T07:13:44;30.00;;;15.63;;
26516;SDS011;14190;51.342;6.338;2022-12-07T07:16:12;28.77;;;14.53;;
26516;SDS011;14190;51.342;6.338;2022-12-07T07:18:39;28.92;;;15.78;;
26516;SDS011;14190;51.342;6.338;2022-12-07T07:21:07;32.50;;;16.95;;
26516;SDS011;14190;51.342;6.338;2022-12-07T07:23:34;31.52;;;16.70;;
26516;SDS011;14190;51.342;6.338;2022-12-07T07:26:02;26.73;;;17.52;;
26516;SDS011;14190;51.342;6.338;2022-12-07T07:28:29;34.70;;;16.85;;
26516;SDS011;14190;51.342;6.338;2022-12-07T07:30:56;26.90;;;16.97;;
26516;SDS011;14190;51.342;6.338;2022-12-07T07:33:24;26.90;;;16.27;;
26516;SDS011;14190;51.342;6.338;2022-12-07T07:35:51;29.57;;;16.62;;
26516;SDS011;14190;51.342;6.338;2022-12-07T07:38:19;27.20;;;15.45;;
26516;SDS011;14190;51.342;6.338;2022-12-07T07:40:46;28.30;;;15.55;;
26516;SDS011;14190;51.342;6.338;2022-12-07T07:43:14;29.87;;;16.12;;
26516;SDS011;14190;51.342;6.338;2022-12-07T07:45:41;29.10;;;15.75;;
26516;SDS011;14190;51.342;6.338;2022-12-07T07:48:09;35.25;;;16.05;;
26516;SDS011;14190;51.342;6.338;2022-12-07T07:50:36;24.60;;;15.30;;
26516;SDS011;14190;51.342;6.338;2022-12-07T07:53:03;34.73;;;18.12;;
26516;SDS011;14190;51.342;6.338;2022-12-07T07:55:31;31.35;;;16.65;;
26516;SDS011;14190;51.342;6.338;2022-12-07T07:57:58;33.05;;;16.30;;
26516;SDS011;14190;51.342;6.338;2022-12-07T08:00:25;25.85;;;15.23;;
26516;SDS011;14190;51.342;6.338;2022-12-07T08:02:53;25.77;;;15.55;;
26516;SDS011;14190;51.342;6.338;2022-12-07T08:05:20;27.07;;;15.63;;
26516;SDS011;14190;51.342;6.338;2022-12-07T08:07:47;27.02;;;14.63;;
26516;SDS011;14190;51.342;6.338;2022-12-07T08:10:15;26.60;;;14.85;;
26516;SDS011;14190;51.342;6.338;2022-12-07T08:12:42;37.40;;;15.48;;
26516;SDS011;14190;51.342;6.338;2022-12-07T08:15:29;29.75;;;15.05;;
26516;SDS011;14190;51.342;6.338;2022-12-07T08:17:57;24.82;;;15.28;;
26516;SDS011;14190;51.342;6.338;2022-12-07T08:20:25;26.02;;;15.32;;
26516;SDS011;14190;51.342;6.338;2022-12-07T08:22:52;25.23;;;14.25;;
26516;SDS011;14190;51.342;6.338;2022-12-07T08:25:19;28.05;;;14.25;;
26516;SDS011;14190;51.342;6.338;2022-12-07T08:27:48;27.98;;;14.00;;
26516;SDS011;14190;51.342;6.338;2022-12-07T08:30:16;21.93;;;14.35;;
26516;SDS011;14190;51.342;6.338;2022-12-07T08:32:46;23.30;;;13.62;;
26516;SDS011;14190;51.342;6.338;2022-12-07T08:35:14;23.42;;;13.85;;
26516;SDS011;14190;51.342;6.338;2022-12-07T08:37:42;28.95;;;14.40;;
26516;SDS011;14190;51.342;6.338;2022-12-07T08:40:10;27.45;;;16.10;;
26516;SDS011;14190;51.342;6.338;2022-12-07T08:42:39;32.65;;;21.52;;
26516;SDS011;14190;51.342;6.338;2022-12-07T08:45:07;35.90;;;23.35;;
26516;SDS011;14190;51.342;6.338;2022-12-07T08:47:36;41.90;;;26.45;;
26516;SDS011;14190;51.342;6.338;2022-12-07T08:50:04;35.23;;;25.77;;
26516;SDS011;14190;51.342;6.338;2022-12-07T08:52:33;37.65;;;27.50;;
26516;SDS011;14190;51.342;6.338;2022-12-07T08:55:02;42.58;;;27.02;;
26516;SDS011;14190;51.342;6.338;2022-12-07T08:57:30;41.50;;;22.60;;
26516;SDS011;14190;51.342;6.338;2022-12-07T08:59:59;39.92;;;21.52;;
26516;SDS011;14190;51.342;6.338;2022-12-07T09:02:26;32.75;;;20.57;;
26516;SDS011;14190;51.342;6.338;2022-12-07T09:04:54;33.50;;;17.95;;
26516;SDS011;14190;51.342;6.338;2022-12-07T09:07:21;23.52;;;15.32;;
26516;SDS011;14190;51.342;6.338;2022-12-07T09:09:48;25.15;;;15.10;;
26516;SDS011;14190;51.342;6.338;2022-12-07T09:12:16;20.82;;;11.78;;
26516;SDS011;14190;51.342;6.338;2022-12-07T09:14:43;23.77;;;12.43;;
26516;SDS011;14190;51.342;6.338;2022-12-07T09:17:11;23.02;;;11.08;;
26516;SDS011;14190;51.342;6.338;2022-12-07T09:19:39;14.60;;;10.23;;
26516;SDS011;14190;51.342;6.338;2022-12-07T09:22:08;15.95;;;9.75;;
26516;SDS011;14190;51.342;6.338;2022-12-07T09:24:35;17.73;;;9.88;;
26516;SDS011;14190;51.342;6.338;2022-12-07T09:27:03;13.80;;;9.60;;
26516;SDS011;14190;51.342;6.338;2022-12-07T09:29:30;22.15;;;10.05;;
26516;SDS011;14190;51.342;6.338;2022-12-07T09:31:57;20.77;;;9.48;;
26516;SDS011;14190;51.342;6.338;2022-12-07T09:34:25;16.37;;;8.65;;
26516;SDS011;14190;51.342;6.338;2022-12-07T09:36:53;16.40;;;8.98;;
26516;SDS011;14190;51.342;6.338;2022-12-07T09:39:20;20.57;;;9.90;;
26516;SDS011;14190;51.342;6.338;2022-12-07T09:41:47;19.95;;;9.60;;
26516;SDS011;14190;51.342;6.338;2022-12-07T09:44:21;17.45;;;9.95;;
26516;SDS011;14190;51.342;6.338;2022-12-07T09:46:44;22.87;;;10.85;;
26516;SDS011;14190;51.342;6.338;2022-12-07T09:49:12;20.23;;;10.88;;
26516;SDS011;14190;51.342;6.338;2022-12-07T09:51:40;22.98;;;12.20;;
26516;SDS011;14190;51.342;6.338;2022-12-07T09:54:08;20.92;;;11.95;;
26516;SDS011;14190;51.342;6.338;2022-12-07T09:56:36;19.20;;;11.93;;
26516;SDS011;14190;51.342;6.338;2022-12-07T09:59:03;19.73;;;11.97;;
26516;SDS011;14190;51.342;6.338;2022-12-07T10:01:31;19.73;;;11.55;;
26516;SDS011;14190;51.342;6.338;2022-12-07T10:04:02;18.85;;;12.90;;
26516;SDS011;14190;51.342;6.338;2022-12-07T10:06:28;18.12;;;11.30;;
26516;SDS011;14190;51.342;6.338;2022-12-07T10:08:55;21.55;;;11.12;;
26516;SDS011;14190;51.342;6.338;2022-12-07T10:11:23;23.90;;;11.95;;
26516;SDS011;14190;51.342;6.338;2022-12-07T10:13:55;17.95;;;10.65;;
26516;SDS011;14190;51.342;6.338;2022-12-07T10:16:39;24.80;;;10.85;;
26516;SDS011;14190;51.342;6.338;2022-12-07T10:22:02;18.17;;;10.78;;
26516;SDS011;14190;51.342;6.338;2022-12-07T10:24:29;16.75;;;9.70;;
26516;SDS011;14190;51.342;6.338;2022-12-07T10:26:57;18.27;;;10.08;;
26516;SDS011;14190;51.342;6.338;2022-12-07T10:29:37;22.73;;;10.32;;
26516;SDS011;14190;51.342;6.338;2022-12-07T10:34:43;18.23;;;10.50;;
26516;SDS011;14190;51.342;6.338;2022-12-07T10:39:43;21.97;;;9.33;;
26516;SDS011;14190;51.342;6.338;2022-12-07T10:42:24;17.85;;;9.35;;
26516;SDS011;14190;51.342;6.338;2022-12-07T10:47:51;16.82;;;8.43;;
26516;SDS011;14190;51.342;6.338;2022-12-07T10:50:24;23.32;;;8.85;;
26516;SDS011;14190;51.342;6.338;2022-12-07T10:58:06;24.92;;;8.03;;
26516;SDS011;14190;51.342;6.338;2022-12-07T11:00:41;21.37;;;8.70;;
26516;SDS011;14190;51.342;6.338;2022-12-07T11:06:02;18.12;;;9.43;;
26516;SDS011;14190;51.342;6.338;2022-12-07T11:11:01;18.17;;;9.03;;
26516;SDS011;14190;51.342;6.338;2022-12-07T11:13:28;14.53;;;8.55;;
26516;SDS011;14190;51.342;6.338;2022-12-07T11:16:07;22.77;;;9.08;;
26516;SDS011;14190;51.342;6.338;2022-12-07T11:21:20;19.40;;;7.50;;
26516;SDS011;14190;51.342;6.338;2022-12-07T11:26:24;18.80;;;7.55;;
26516;SDS011;14190;51.342;6.338;2022-12-07T11:31:43;20.23;;;7.50;;
26516;SDS011;14190;51.342;6.338;2022-12-07T11:34:08;23.70;;;7.70;;
26516;SDS011;14190;51.342;6.338;2022-12-07T11:41:56;23.62;;;7.10;;
26516;SDS011;14190;51.342;6.338;2022-12-07T11:47:09;16.62;;;7.25;;
26516;SDS011;14190;51.342;6.338;2022-12-07T11:52:40;25.68;;;8.70;;
26516;SDS011;14190;51.342;6.338;2022-12-07T11:55:01;19.57;;;7.47;;
26516;SDS011;14190;51.342;6.338;2022-12-07T11:57:41;17.62;;;7.83;;
26516;SDS011;14190;51.342;6.338;2022-12-07T12:00:15;11.40;;;5.67;;
26516;SDS011;14190;51.342;6.338;2022-12-07T12:05:24;14.63;;;6.17;;
26516;SDS011;14190;51.342;6.338;2022-12-07T12:07:59;16.90;;;6.10;;
26516;SDS011;14190;51.342;6.338;2022-12-07T12:10:27;16.12;;;5.15;;
26516;SDS011;14190;51.342;6.338;2022-12-07T12:13:05;12.35;;;5.67;;
26516;SDS011;14190;51.342;6.338;2022-12-07T12:15:39;13.32;;;4.83;;
26516;SDS011;14190;51.342;6.338;2022-12-07T12:18:18;15.23;;;4.95;;
26516;SDS011;14190;51.342;6.338;2022-12-07T12:23:22;16.35;;;5.72;;
26516;SDS011;14190;51.342;6.338;2022-12-07T12:25:51;16.82;;;5.90;;
26516;SDS011;14190;51.342;6.338;2022-12-07T12:31:04;15.88;;;5.33;;
26516;SDS011;14190;51.342;6.338;2022-12-07T12:33:27;12.07;;;5.03;;
26516;SDS011;14190;51.342;6.338;2022-12-07T12:46:58;10.28;;;4.83;;
26516;SDS011;14190;51.342;6.338;2022-12-07T12:51:59;22.15;;;5.75;;
26516;SDS011;14190;51.342;6.338;2022-12-07T12:57:15;13.58;;;4.87;;
26516;SDS011;14190;51.342;6.338;2022-12-07T13:02:24;17.40;;;6.12;;
26516;SDS011;14190;51.342;6.338;2022-12-07T13:10:21;14.05;;;5.65;;
26516;SDS011;14190;51.342;6.338;2022-12-07T13:12:36;11.57;;;5.15;;
26516;SDS011;14190;51.342;6.338;2022-12-07T13:15:03;10.98;;;5.15;;
26516;SDS011;14190;51.342;6.338;2022-12-07T13:20:05;14.13;;;5.58;;
26516;SDS011;14190;51.342;6.338;2022-12-07T13:25:17;16.67;;;5.22;;
26516;SDS011;14190;51.342;6.338;2022-12-07T13:27:41;15.80;;;5.35;;
26516;SDS011;14190;51.342;6.338;2022-12-07T13:30:18;12.95;;;5.15;;
26516;SDS011;14190;51.342;6.338;2022-12-07T13:32:42;17.52;;;5.53;;
26516;SDS011;14190;51.342;6.338;2022-12-07T13:37:55;13.38;;;5.17;;
26516;SDS011;14190;51.342;6.338;2022-12-07T13:40:23;11.88;;;5.30;;
26516;SDS011;14190;51.342;6.338;2022-12-07T13:42:58;10.20;;;5.40;;
26516;SDS011;14190;51.342;6.338;2022-12-07T13:51:24;7.30;;;5.00;;
26516;SDS011;14190;51.342;6.338;2022-12-07T13:53:55;12.58;;;5.80;;
26516;SDS011;14190;51.342;6.338;2022-12-07T13:56:25;13.08;;;5.03;;
26516;SDS011;14190;51.342;6.338;2022-12-07T13:58:52;13.50;;;4.80;;
26516;SDS011;14190;51.342;6.338;2022-12-07T14:01:19;12.10;;;5.50;;
26516;SDS011;14190;51.342;6.338;2022-12-07T14:03:46;17.05;;;5.70;;
26516;SDS011;14190;51.342;6.338;2022-12-07T14:06:16;11.83;;;5.25;;
26516;SDS011;14190;51.342;6.338;2022-12-07T14:08:43;18.02;;;4.55;;
26516;SDS011;14190;51.342;6.338;2022-12-07T14:11:16;9.33;;;4.55;;
26516;SDS011;14190;51.342;6.338;2022-12-07T14:16:26;17.57;;;4.85;;
26516;SDS011;14190;51.342;6.338;2022-12-07T14:18:55;17.35;;;4.97;;
26516;SDS011;14190;51.342;6.338;2022-12-07T14:21:24;19.05;;;5.40;;
26516;SDS011;14190;51.342;6.338;2022-12-07T14:24:06;14.87;;;4.87;;
26516;SDS011;14190;51.342;6.338;2022-12-07T14:26:27;21.50;;;5.05;;
26516;SDS011;14190;51.342;6.338;2022-12-07T14:29:18;16.02;;;5.10;;
26516;SDS011;14190;51.342;6.338;2022-12-07T14:31:24;14.85;;;4.62;;
26516;SDS011;14190;51.342;6.338;2022-12-07T14:33:52;13.65;;;4.40;;
26516;SDS011;14190;51.342;6.338;2022-12-07T14:36:19;9.78;;;3.72;;
26516;SDS011;14190;51.342;6.338;2022-12-07T14:38:46;13.08;;;4.22;;
26516;SDS011;14190;51.342;6.338;2022-12-07T14:41:14;13.28;;;3.42;;
26516;SDS011;14190;51.342;6.338;2022-12-07T14:44:00;14.13;;;4.40;;
26516;SDS011;14190;51.342;6.338;2022-12-07T14:46:27;16.37;;;3.87;;
26516;SDS011;14190;51.342;6.338;2022-12-07T14:48:55;16.70;;;3.83;;
26516;SDS011;14190;51.342;6.338;2022-12-07T14:51:22;9.73;;;3.75;;
26516;SDS011;14190;51.342;6.338;2022-12-07T14:53:50;10.75;;;3.85;;
26516;SDS011;14190;51.342;6.338;2022-12-07T14:56:18;9.90;;;3.83;;
26516;SDS011;14190;51.342;6.338;2022-12-07T14:58:46;13.05;;;4.10;;
26516;SDS011;14190;51.342;6.338;2022-12-07T15:01:15;12.93;;;3.42;;
26516;SDS011;14190;51.342;6.338;2022-12-07T15:03:42;11.75;;;3.42;;
26516;SDS011;14190;51.342;6.338;2022-12-07T15:06:10;13.30;;;3.50;;
26516;SDS011;14190;51.342;6.338;2022-12-07T15:08:39;7.42;;;3.00;;
26516;SDS011;14190;51.342;6.338;2022-12-07T15:11:08;12.40;;;3.47;;
26516;SDS011;14190;51.342;6.338;2022-12-07T15:13:35;15.50;;;3.47;;
26516;SDS011;14190;51.342;6.338;2022-12-07T15:16:20;13.95;;;6.67;;
26516;SDS011;14190;51.342;6.338;2022-12-07T15:18:48;18.30;;;7.62;;
26516;SDS011;14190;51.342;6.338;2022-12-07T15:21:15;18.65;;;7.50;;
26516;SDS011;14190;51.342;6.338;2022-12-07T15:23:42;16.90;;;6.45;;
26516;SDS011;14190;51.342;6.338;2022-12-07T15:26:10;20.00;;;7.95;;
26516;SDS011;14190;51.342;6.338;2022-12-07T15:28:37;17.73;;;7.87;;
26516;SDS011;14190;51.342;6.338;2022-12-07T15:31:10;16.77;;;7.92;;
26516;SDS011;14190;51.342;6.338;2022-12-07T15:33:33;24.50;;;7.30;;
26516;SDS011;14190;51.342;6.338;2022-12-07T15:36:01;19.17;;;7.35;;
26516;SDS011;14190;51.342;6.338;2022-12-07T15:38:29;21.10;;;7.83;;
26516;SDS011;14190;51.342;6.338;2022-12-07T15:40:57;13.32;;;6.87;;
26516;SDS011;14190;51.342;6.338;2022-12-07T15:43:24;10.93;;;5.42;;
26516;SDS011;14190;51.342;6.338;2022-12-07T15:46:09;12.93;;;6.08;;
26516;SDS011;14190;51.342;6.338;2022-12-07T15:48:37;12.82;;;6.12;;
26516;SDS011;14190;51.342;6.338;2022-12-07T15:51:05;13.93;;;5.90;;
26516;SDS011;14190;51.342;6.338;2022-12-07T15:53:33;14.58;;;7.25;;
26516;SDS011;14190;51.342;6.338;2022-12-07T15:56:00;15.85;;;6.70;;
26516;SDS011;14190;51.342;6.338;2022-12-07T15:58:28;16.80;;;6.42;;
26516;SDS011;14190;51.342;6.338;2022-12-07T16:00:55;17.85;;;5.97;;
26516;SDS011;14190;51.342;6.338;2022-12-07T16:03:22;15.38;;;7.03;;
26516;SDS011;14190;51.342;6.338;2022-12-07T16:05:50;13.55;;;6.78;;
26516;SDS011;14190;51.342;6.338;2022-12-07T16:08:17;15.98;;;6.10;;
26516;SDS011;14190;51.342;6.338;2022-12-07T16:10:45;17.87;;;7.42;;
26516;SDS011;14190;51.342;6.338;2022-12-07T16:13:12;21.50;;;6.83;;
26516;SDS011;14190;51.342;6.338;2022-12-07T16:15:40;13.95;;;7.17;;
26516;SDS011;14190;51.342;6.338;2022-12-07T16:18:08;12.93;;;6.85;;
26516;SDS011;14190;51.342;6.338;2022-12-07T16:20:35;19.37;;;6.40;;
26516;SDS011;14190;51.342;6.338;2022-12-07T16:23:02;19.90;;;7.72;;
26516;SDS011;14190;51.342;6.338;2022-12-07T16:25:30;17.20;;;6.78;;